createdAt,value
2023-10-06T00:02:32.941Z,6.63
2023-10-06T00:05:03.703Z,6.95
2023-10-06T00:07:33.989Z,7.38
2023-10-06T00:10:03.867Z,6.20
2023-10-06T00:12:34.078Z,6.32
2023-10-06T00:15:10.105Z,7.20
2023-10-06T00:17:41.838Z,6.43
2023-10-06T00:20:22.860Z,7.03
2023-10-06T00:22:56.446Z,6.07
2023-10-06T00:25:26.836Z,5.53
2023-10-06T00:27:57.207Z,7.20
2023-10-06T00:30:27.883Z,6.78
2023-10-06T00:32:59.290Z,6.93
2023-10-06T00:35:33.385Z,6.50
2023-10-06T00:38:18.881Z,8.10
2023-10-06T00:40:57.574Z,8.00
2023-10-06T00:43:39.005Z,7.75
2023-10-06T00:46:10.104Z,8.32
2023-10-06T00:48:54.966Z,8.82
2023-10-06T00:51:30.442Z,8.82
2023-10-06T00:54:06.797Z,7.88
2023-10-06T00:56:37.360Z,8.38
2023-10-06T00:59:08.404Z,8.63
2023-10-06T01:01:38.890Z,9.90
2023-10-06T01:04:10.178Z,9.15
2023-10-06T01:06:45.399Z,9.32
2023-10-06T01:09:19.142Z,9.05
2023-10-06T01:11:57.859Z,7.55
2023-10-06T01:14:29.001Z,6.50
2023-10-06T01:17:19.772Z,7.20
2023-10-06T01:19:50.641Z,6.40
2023-10-06T01:22:35.050Z,5.85
2023-10-06T01:25:13.195Z,5.63
2023-10-06T01:27:46.244Z,8.70
2023-10-06T01:30:23.090Z,8.73
2023-10-06T01:32:53.785Z,15.38
2023-10-06T01:35:26.489Z,15.25
2023-10-06T01:38:07.975Z,11.35
2023-10-06T01:40:45.824Z,10.40
2023-10-06T01:43:19.296Z,8.25
2023-10-06T01:45:49.544Z,10.10
2023-10-06T01:48:23.416Z,10.10
2023-10-06T01:50:56.806Z,9.15
2023-10-06T01:53:34.865Z,9.10
2023-10-06T01:56:09.630Z,8.52
2023-10-06T01:58:42.009Z,7.70
2023-10-06T02:03:42.484Z,8.50
2023-10-06T02:06:18.190Z,7.30
2023-10-06T02:08:57.069Z,7.80
2023-10-06T02:11:33.252Z,9.57
2023-10-06T02:14:07.129Z,9.82
2023-10-06T02:16:37.602Z,9.32
2023-10-06T02:19:27.781Z,10.13
2023-10-06T02:21:58.080Z,9.32
2023-10-06T02:24:28.184Z,8.57
2023-10-06T02:27:05.137Z,8.85
2023-10-06T02:29:35.114Z,8.00
2023-10-06T02:32:11.262Z,8.25
2023-10-06T02:34:41.727Z,9.15
2023-10-06T02:37:12.614Z,7.75
2023-10-06T02:39:45.917Z,8.65
2023-10-06T02:42:21.632Z,6.82
2023-10-06T02:44:53.863Z,7.75
2023-10-06T02:47:24.179Z,8.82
2023-10-06T02:50:01.920Z,11.45
2023-10-06T02:52:32.520Z,11.20
2023-10-06T02:55:12.410Z,10.65
2023-10-06T02:57:53.086Z,10.95
2023-10-06T03:00:25.787Z,8.13
2023-10-06T03:03:19.815Z,9.82
2023-10-06T03:05:53.769Z,11.48
2023-10-06T03:08:25.977Z,11.35
2023-10-06T03:10:56.524Z,9.38
2023-10-06T03:13:35.980Z,12.27
2023-10-06T03:16:12.823Z,12.32
2023-10-06T03:18:43.429Z,12.25
2023-10-06T03:21:18.316Z,11.05
2023-10-06T03:23:58.600Z,12.50
2023-10-06T03:26:36.211Z,11.65
2023-10-06T03:29:13.603Z,10.65
2023-10-06T03:31:49.479Z,11.60
2023-10-06T03:34:25.676Z,9.88
2023-10-06T03:36:55.794Z,12.95
2023-10-06T03:39:33.974Z,14.00
2023-10-06T03:42:08.679Z,14.52
2023-10-06T03:44:39.030Z,15.10
2023-10-06T03:47:11.274Z,13.70
2023-10-06T03:49:42.712Z,14.13
2023-10-06T03:52:12.895Z,11.13
2023-10-06T03:54:44.100Z,12.70
2023-10-06T03:57:17.694Z,10.32
2023-10-06T03:59:48.218Z,9.32
2023-10-06T04:02:18.297Z,9.55
2023-10-06T04:04:52.042Z,7.75
2023-10-06T04:07:22.373Z,9.65
2023-10-06T04:09:52.910Z,9.55
2023-10-06T04:12:26.237Z,10.65
2023-10-06T04:14:56.689Z,10.40
2023-10-06T04:17:26.699Z,12.32
2023-10-06T04:19:56.988Z,10.43
2023-10-06T04:22:27.108Z,9.52
2023-10-06T04:24:57.372Z,11.00
2023-10-06T04:27:28.536Z,11.55
2023-10-06T04:29:58.838Z,10.13
2023-10-06T04:32:30.172Z,13.02
2023-10-06T04:35:02.919Z,12.93
2023-10-06T04:37:33.037Z,11.63
2023-10-06T04:40:03.263Z,12.95
2023-10-06T04:42:33.986Z,10.65
2023-10-06T04:45:09.095Z,10.30
2023-10-06T04:47:42.768Z,8.95
2023-10-06T04:50:18.184Z,10.45
2023-10-06T04:52:49.390Z,9.73
2023-10-06T04:55:21.607Z,9.70
2023-10-06T04:57:51.916Z,8.40
2023-10-06T05:00:22.607Z,8.45
2023-10-06T05:02:55.674Z,8.40
2023-10-06T05:05:27.466Z,9.15
2023-10-06T05:07:57.654Z,11.13
2023-10-06T05:10:28.750Z,10.20
2023-10-06T05:12:59.250Z,9.10
2023-10-06T05:15:29.648Z,10.68
2023-10-06T05:18:01.189Z,9.30
2023-10-06T05:20:33.846Z,8.90
2023-10-06T05:23:09.612Z,10.93
2023-10-06T05:25:40.890Z,8.27
2023-10-06T05:28:13.884Z,10.85
2023-10-06T05:30:44.825Z,9.82
2023-10-06T05:33:16.593Z,8.82
2023-10-06T05:35:48.666Z,9.20
2023-10-06T05:38:18.847Z,13.82
2023-10-06T05:40:50.583Z,21.95
2023-10-06T05:43:20.742Z,12.77
2023-10-06T05:45:54.236Z,16.00
2023-10-06T05:48:24.795Z,7.90
2023-10-06T05:50:58.955Z,8.90
2023-10-06T05:53:32.839Z,10.02
2023-10-06T05:56:05.375Z,7.85
2023-10-06T05:58:36.833Z,7.85
2023-10-06T06:01:13.260Z,7.95
2023-10-06T06:03:48.365Z,8.27
2023-10-06T06:06:24.771Z,8.50
2023-10-06T06:08:55.079Z,9.90
2023-10-06T06:11:25.565Z,12.50
2023-10-06T06:14:15.259Z,13.70
2023-10-06T06:16:47.614Z,12.23
2023-10-06T06:19:17.808Z,16.90
2023-10-06T06:21:48.205Z,7.90
2023-10-06T06:24:24.481Z,7.90
2023-10-06T06:26:54.799Z,6.22
2023-10-06T06:29:25.428Z,8.13
2023-10-06T06:31:57.425Z,9.63
2023-10-06T06:34:27.507Z,9.63
2023-10-06T06:36:57.748Z,11.30
2023-10-06T06:39:29.860Z,13.00
2023-10-06T06:42:00.128Z,16.20
2023-10-06T06:44:32.245Z,44.95
2023-10-06T06:47:03.020Z,30.70
2023-10-06T06:49:33.389Z,14.65
2023-10-06T06:52:03.729Z,7.00
2023-10-06T06:54:39.112Z,11.27
2023-10-06T06:57:12.025Z,9.02
2023-10-06T06:59:45.320Z,10.90
2023-10-06T07:02:16.848Z,11.35
2023-10-06T07:04:47.020Z,10.52
2023-10-06T07:07:17.787Z,8.40
2023-10-06T07:09:49.010Z,7.47
2023-10-06T07:12:20.712Z,10.27
2023-10-06T07:14:51.320Z,13.43
2023-10-06T07:17:21.694Z,11.18
2023-10-06T07:19:51.755Z,10.77
2023-10-06T07:22:28.947Z,10.45
2023-10-06T07:24:59.157Z,8.68
2023-10-06T07:27:35.156Z,8.18
2023-10-06T07:30:07.161Z,9.02
2023-10-06T07:32:37.633Z,11.13
2023-10-06T07:35:08.294Z,11.02
2023-10-06T07:37:38.706Z,15.00
2023-10-06T07:40:15.395Z,14.65
2023-10-06T07:42:46.977Z,16.10
2023-10-06T07:45:17.452Z,15.18
2023-10-06T07:47:48.213Z,14.75
2023-10-06T07:50:18.901Z,14.00
2023-10-06T07:52:50.217Z,13.35
2023-10-06T07:55:23.704Z,15.27
2023-10-06T07:57:54.436Z,15.02
2023-10-06T08:00:32.135Z,13.85
2023-10-06T08:03:05.840Z,13.55
2023-10-06T08:05:36.036Z,13.05
2023-10-06T08:08:06.704Z,13.70
2023-10-06T08:10:36.736Z,11.73
2023-10-06T08:13:07.041Z,12.25
2023-10-06T08:15:40.905Z,10.05
2023-10-06T08:18:12.038Z,10.25
2023-10-06T08:20:42.630Z,10.15
2023-10-06T08:23:14.205Z,10.95
2023-10-06T08:25:57.409Z,9.07
2023-10-06T08:33:38.303Z,8.15
2023-10-06T08:36:10.789Z,8.40
2023-10-06T08:41:11.756Z,9.77
2023-10-06T08:43:42.853Z,9.43
2023-10-06T08:46:17.584Z,8.40
2023-10-06T08:48:49.094Z,7.97
2023-10-06T08:51:23.174Z,20.52
2023-10-06T08:53:58.021Z,9.75
2023-10-06T08:56:27.988Z,18.80
2023-10-06T08:58:58.256Z,10.23
2023-10-06T09:01:31.303Z,9.65
2023-10-06T09:04:06.817Z,10.30
2023-10-06T09:06:38.255Z,9.05
2023-10-06T09:09:08.509Z,8.32
2023-10-06T09:11:42.463Z,8.45
2023-10-06T09:14:15.552Z,7.65
2023-10-06T09:16:53.279Z,7.82
2023-10-06T09:19:23.556Z,8.57
2023-10-06T09:22:09.782Z,7.28
2023-10-06T09:24:41.382Z,9.30
2023-10-06T09:27:24.030Z,10.73
2023-10-06T09:30:13.094Z,9.15
2023-10-06T09:32:43.158Z,13.05
2023-10-06T09:35:24.467Z,9.30
2023-10-06T09:37:59.370Z,9.82
2023-10-06T09:40:34.422Z,9.85
2023-10-06T09:43:07.884Z,9.45
2023-10-06T09:45:39.701Z,9.65
2023-10-06T09:48:17.889Z,8.20
2023-10-06T09:50:49.054Z,8.57
2023-10-06T09:53:22.021Z,9.55
2023-10-06T09:55:54.350Z,8.60
2023-10-06T09:58:25.307Z,7.32
2023-10-06T10:00:57.082Z,10.05
2023-10-06T10:03:27.549Z,11.73
2023-10-06T10:06:03.196Z,11.25
2023-10-06T10:08:35.377Z,7.88
2023-10-06T10:14:36.436Z,8.52
2023-10-06T10:17:36.947Z,7.07
2023-10-06T10:20:11.717Z,12.27
2023-10-06T10:22:45.357Z,9.65
2023-10-06T10:28:20.697Z,11.80
2023-10-06T10:30:52.585Z,10.80
2023-10-06T10:33:27.150Z,10.95
2023-10-06T10:36:17.105Z,8.65
2023-10-06T10:38:48.011Z,10.85
2023-10-06T10:41:20.325Z,11.55
2023-10-06T10:43:51.095Z,11.13
2023-10-06T10:46:41.480Z,9.15
2023-10-06T10:49:15.874Z,11.95
2023-10-06T10:51:59.769Z,11.93
2023-10-06T10:54:33.704Z,16.65
2023-10-06T10:57:13.688Z,16.75
2023-10-06T11:00:06.826Z,12.10
2023-10-06T11:02:49.483Z,8.32
2023-10-06T11:05:24.329Z,15.82
2023-10-06T11:08:00.853Z,9.43
2023-10-06T11:10:35.138Z,6.63
2023-10-06T11:13:48.200Z,9.60
2023-10-06T11:16:25.598Z,10.20
2023-10-06T11:18:55.740Z,8.50
2023-10-06T11:21:29.463Z,6.78
2023-10-06T11:24:00.860Z,7.95
2023-10-06T11:26:34.052Z,4.63
2023-10-06T11:29:04.130Z,6.32
2023-10-06T11:31:34.596Z,4.25
2023-10-06T11:34:05.602Z,5.40
2023-10-06T11:36:35.937Z,5.95
2023-10-06T11:39:06.213Z,4.00
2023-10-06T11:41:36.663Z,4.43
2023-10-06T11:44:10.038Z,4.90
2023-10-06T11:46:54.062Z,5.07
2023-10-06T11:49:25.500Z,4.85
2023-10-06T11:51:55.926Z,5.25
2023-10-06T11:54:28.095Z,4.30
2023-10-06T11:56:59.410Z,4.13
2023-10-06T11:59:30.743Z,4.07
2023-10-06T12:02:11.519Z,4.50
2023-10-06T12:04:41.629Z,4.97
2023-10-06T12:07:27.039Z,5.55
2023-10-06T12:10:07.529Z,5.18
2023-10-06T12:12:38.457Z,4.90
2023-10-06T12:15:09.295Z,5.82
2023-10-06T12:17:40.837Z,4.90
2023-10-06T12:20:16.060Z,4.25
2023-10-06T12:22:47.489Z,4.03
2023-10-06T12:25:18.625Z,3.70
2023-10-06T12:27:49.370Z,3.10
2023-10-06T12:30:20.487Z,3.40
2023-10-06T12:32:51.027Z,3.15
2023-10-06T12:35:21.123Z,3.40
2023-10-06T12:37:54.708Z,3.63
2023-10-06T12:40:25.042Z,3.38
2023-10-06T12:42:55.310Z,2.88
2023-10-06T12:45:25.642Z,2.95
2023-10-06T12:47:55.885Z,2.55
2023-10-06T12:50:26.315Z,3.53
2023-10-06T12:52:57.618Z,2.95
2023-10-06T12:55:29.702Z,2.80
2023-10-06T12:58:00.049Z,2.70
2023-10-06T13:00:30.755Z,3.53
2023-10-06T13:03:01.412Z,3.20
2023-10-06T13:05:31.714Z,3.28
2023-10-06T13:08:03.307Z,2.97
2023-10-06T13:10:33.368Z,3.10
2023-10-06T13:13:08.573Z,3.10
2023-10-06T13:15:38.596Z,3.38
2023-10-06T13:18:11.516Z,3.60
2023-10-06T13:20:42.982Z,3.47
2023-10-06T13:23:13.404Z,3.40
2023-10-06T13:25:44.432Z,3.80
2023-10-06T13:28:19.342Z,3.40
2023-10-06T13:30:49.552Z,4.03
2023-10-06T13:33:20.499Z,4.53
2023-10-06T13:35:50.948Z,3.88
2023-10-06T13:38:21.595Z,3.25
2023-10-06T13:40:52.704Z,3.75
2023-10-06T13:43:23.223Z,3.28
2023-10-06T13:45:53.372Z,3.75
2023-10-06T13:48:28.242Z,3.92
2023-10-06T13:51:01.517Z,3.75
2023-10-06T13:53:32.363Z,3.63
2023-10-06T13:56:02.521Z,3.70
2023-10-06T13:58:32.861Z,3.35
2023-10-06T14:01:04.125Z,3.88
2023-10-06T14:03:34.961Z,3.15
2023-10-06T14:06:05.883Z,3.00
2023-10-06T14:08:36.326Z,3.20
2023-10-06T14:11:06.808Z,3.13
2023-10-06T14:13:37.073Z,3.10
2023-10-06T14:16:07.234Z,3.47
2023-10-06T14:18:41.279Z,3.63
2023-10-06T14:21:13.865Z,2.83
2023-10-06T14:23:49.321Z,3.28
2023-10-06T14:26:21.503Z,3.20
2023-10-06T14:28:52.634Z,3.78
2023-10-06T14:31:31.843Z,3.72
2023-10-06T14:34:20.424Z,2.60
2023-10-06T14:36:59.595Z,3.22
2023-10-06T14:39:48.141Z,3.40
2023-10-06T14:42:36.360Z,3.38
2023-10-06T14:45:25.503Z,3.20
2023-10-06T14:47:55.770Z,3.20
2023-10-06T14:50:26.716Z,3.30
2023-10-06T14:52:59.412Z,3.45
2023-10-06T14:55:35.101Z,2.80
2023-10-06T14:58:07.336Z,3.80
2023-10-06T15:00:37.601Z,3.92
2023-10-06T15:03:10.571Z,3.10
2023-10-06T15:05:40.868Z,3.53
2023-10-06T15:08:14.626Z,3.30
2023-10-06T15:10:45.589Z,3.33
2023-10-06T15:13:21.047Z,3.50
2023-10-06T15:15:52.303Z,3.45
2023-10-06T15:18:24.242Z,3.47
2023-10-06T15:20:54.566Z,3.30
2023-10-06T15:23:24.759Z,3.05
2023-10-06T15:25:58.803Z,2.88
2023-10-06T15:28:38.833Z,3.53
2023-10-06T15:31:14.244Z,3.40
2023-10-06T15:33:48.732Z,3.47
2023-10-06T15:36:19.269Z,3.30
2023-10-06T15:38:49.410Z,3.08
2023-10-06T15:41:19.876Z,3.30
2023-10-06T15:43:50.120Z,3.28
2023-10-06T15:46:22.177Z,3.40
2023-10-06T15:48:57.740Z,3.35
2023-10-06T15:51:27.987Z,3.55
2023-10-06T15:53:58.152Z,3.40
2023-10-06T15:56:28.461Z,3.63
2023-10-06T15:58:58.383Z,3.78
2023-10-06T16:01:29.121Z,3.58
2023-10-06T16:04:00.393Z,3.80
2023-10-06T16:06:34.347Z,3.90
2023-10-06T16:09:10.612Z,3.67
2023-10-06T16:11:44.732Z,3.90
2023-10-06T16:14:17.951Z,4.40
2023-10-06T16:16:51.257Z,4.35
2023-10-06T16:19:21.556Z,4.15
2023-10-06T16:21:53.749Z,4.22
2023-10-06T16:24:23.825Z,4.20
2023-10-06T16:26:54.163Z,4.10
2023-10-06T16:29:25.135Z,4.00
2023-10-06T16:31:55.647Z,3.78
2023-10-06T16:34:25.668Z,4.00
2023-10-06T16:36:56.017Z,3.95
2023-10-06T16:39:28.092Z,4.20
2023-10-06T16:41:58.419Z,4.00
2023-10-06T16:44:28.395Z,3.60
2023-10-06T16:46:58.644Z,3.85
2023-10-06T16:49:30.349Z,4.25
2023-10-06T16:54:33.858Z,4.40
2023-10-06T16:57:05.075Z,4.07
2023-10-06T16:59:37.671Z,4.25
2023-10-06T17:02:09.074Z,3.67
2023-10-06T17:04:41.203Z,3.63
2023-10-06T17:07:12.508Z,4.00
2023-10-06T17:09:43.538Z,4.00
2023-10-06T17:12:13.927Z,3.90
2023-10-06T17:14:44.167Z,3.95
2023-10-06T17:17:15.297Z,3.95
2023-10-06T17:19:45.961Z,3.90
2023-10-06T17:22:16.481Z,3.95
2023-10-06T17:24:47.494Z,3.90
2023-10-06T17:27:17.830Z,3.75
2023-10-06T17:29:48.592Z,4.35
2023-10-06T17:32:19.007Z,4.38
2023-10-06T17:34:49.067Z,4.45
2023-10-06T17:37:30.753Z,4.18
2023-10-06T17:40:01.430Z,4.30
2023-10-06T17:42:32.102Z,3.85
2023-10-06T17:45:06.427Z,4.57
2023-10-06T17:47:37.380Z,4.55
2023-10-06T17:50:15.102Z,4.68
2023-10-06T17:52:48.304Z,5.00
2023-10-06T17:55:18.646Z,4.32
2023-10-06T17:57:51.353Z,4.88
2023-10-06T18:00:21.643Z,4.70
2023-10-06T18:02:57.496Z,4.32
2023-10-06T18:05:28.368Z,4.60
2023-10-06T18:07:58.661Z,4.50
2023-10-06T18:10:31.604Z,4.40
2023-10-06T18:13:01.997Z,4.13
2023-10-06T18:15:31.969Z,4.85
2023-10-06T18:18:02.403Z,4.15
2023-10-06T18:20:39.484Z,4.88
2023-10-06T18:23:10.652Z,4.88
2023-10-06T18:25:47.394Z,5.10
2023-10-06T18:28:22.523Z,5.10
2023-10-06T18:30:59.070Z,5.18
2023-10-06T18:33:31.056Z,5.05
2023-10-06T18:36:02.178Z,5.15
2023-10-06T18:38:32.402Z,4.93
2023-10-06T18:41:07.300Z,5.15
2023-10-06T18:43:37.947Z,5.20
2023-10-06T18:46:11.988Z,5.05
2023-10-06T18:48:44.635Z,5.13
2023-10-06T18:51:15.879Z,4.93
2023-10-06T18:53:50.291Z,5.30
2023-10-06T18:56:20.376Z,5.00
2023-10-06T18:58:53.389Z,5.38
2023-10-06T19:01:24.268Z,5.32
2023-10-06T19:03:54.416Z,5.25
2023-10-06T19:06:27.072Z,5.40
2023-10-06T19:08:57.219Z,5.05
2023-10-06T19:11:28.814Z,5.03
2023-10-06T19:13:58.715Z,5.30
2023-10-06T19:16:29.287Z,5.88
2023-10-06T19:19:00.605Z,4.88
2023-10-06T19:21:31.040Z,5.63
2023-10-06T19:24:05.647Z,5.40
2023-10-06T19:26:50.045Z,5.80
2023-10-06T19:29:24.629Z,5.10
2023-10-06T19:32:16.830Z,5.72
2023-10-06T19:34:47.323Z,7.10
2023-10-06T19:37:22.348Z,6.10
2023-10-06T19:39:58.658Z,6.00
2023-10-06T19:42:33.984Z,5.32
2023-10-06T19:45:04.974Z,8.25
2023-10-06T19:47:36.186Z,6.63
2023-10-06T19:50:14.294Z,5.40
2023-10-06T19:52:45.543Z,6.05
2023-10-06T19:55:16.168Z,5.63
2023-10-06T19:57:47.103Z,5.90
2023-10-06T20:00:28.434Z,5.55
2023-10-06T20:02:59.560Z,5.72
2023-10-06T20:05:30.031Z,7.00
2023-10-06T20:08:02.502Z,6.30
2023-10-06T20:10:33.063Z,6.53
2023-10-06T20:13:05.295Z,6.40
2023-10-06T20:15:37.565Z,6.30
2023-10-06T20:18:08.989Z,6.57
2023-10-06T20:20:41.071Z,6.53
2023-10-06T20:23:12.030Z,6.00
2023-10-06T20:25:43.463Z,6.95
2023-10-06T20:28:15.752Z,6.72
2023-10-06T20:30:46.206Z,7.07
2023-10-06T20:33:17.379Z,8.05
2023-10-06T20:35:47.917Z,8.30
2023-10-06T20:38:19.222Z,8.23
2023-10-06T20:40:49.853Z,9.80
2023-10-06T20:43:21.464Z,10.15
2023-10-06T20:45:52.157Z,9.18
2023-10-06T20:48:23.445Z,8.45
2023-10-06T20:50:53.956Z,8.15
2023-10-06T20:53:25.776Z,8.10
2023-10-06T20:56:06.021Z,8.20
2023-10-06T20:58:37.122Z,8.32
2023-10-06T21:01:08.712Z,8.48
2023-10-06T21:03:40.657Z,9.30
2023-10-06T21:06:11.410Z,9.77
2023-10-06T21:08:43.006Z,11.65
2023-10-06T21:11:15.192Z,13.60
2023-10-06T21:13:47.275Z,13.38
2023-10-06T21:16:17.764Z,10.93
2023-10-06T21:18:49.122Z,12.10
2023-10-06T21:21:19.554Z,11.95
2023-10-06T21:23:50.612Z,10.95
2023-10-06T21:26:21.234Z,10.38
2023-10-06T21:28:52.869Z,12.68
2023-10-06T21:31:23.259Z,14.23
2023-10-06T21:33:54.719Z,13.88
2023-10-06T21:36:25.420Z,13.80
2023-10-06T21:38:56.656Z,13.10
2023-10-06T21:41:27.062Z,12.02
2023-10-06T21:43:58.235Z,13.68
2023-10-06T21:46:28.728Z,14.18
2023-10-06T21:48:59.860Z,17.30
2023-10-06T21:51:30.268Z,16.20
2023-10-06T21:54:02.612Z,16.40
2023-10-06T21:56:33.006Z,18.00
2023-10-06T21:59:04.518Z,17.73
2023-10-06T22:01:34.977Z,19.67
2023-10-06T22:04:06.192Z,19.23
2023-10-06T22:06:36.774Z,12.75
2023-10-06T22:09:10.940Z,12.75
2023-10-06T22:11:43.169Z,11.68
2023-10-06T22:14:14.904Z,11.90
2023-10-06T22:16:46.318Z,12.45
2023-10-06T22:19:17.854Z,13.98
2023-10-06T22:21:48.304Z,14.32
2023-10-06T22:24:19.430Z,16.17
2023-10-06T22:26:49.887Z,17.33
2023-10-06T22:29:20.858Z,18.45
2023-10-06T22:31:52.509Z,17.88
2023-10-06T22:34:24.965Z,19.42
2023-10-06T22:37:01.700Z,19.85
2023-10-06T22:39:36.234Z,18.27
2023-10-06T22:42:06.684Z,16.08
2023-10-06T22:44:38.443Z,13.50
2023-10-06T22:47:09.029Z,14.60
2023-10-06T22:49:40.275Z,12.60
2023-10-06T22:52:10.790Z,17.42
2023-10-06T22:54:41.992Z,16.85
2023-10-06T22:57:12.457Z,16.95
2023-10-06T22:59:43.371Z,13.00
2023-10-06T23:02:13.836Z,14.70
2023-10-06T23:04:45.619Z,14.15
2023-10-06T23:07:16.168Z,14.15
2023-10-06T23:09:48.087Z,15.32
2023-10-06T23:12:18.995Z,19.17
2023-10-06T23:14:49.983Z,18.73
2023-10-06T23:17:21.178Z,18.98
2023-10-06T23:20:01.831Z,18.42
2023-10-06T23:22:32.820Z,19.85
2023-10-06T23:25:05.326Z,16.67
2023-10-06T23:27:36.025Z,17.33
2023-10-06T23:30:09.874Z,16.77
2023-10-06T23:32:40.690Z,14.45
2023-10-06T23:35:11.844Z,14.27
2023-10-06T23:37:43.631Z,14.10
2023-10-06T23:40:20.474Z,15.98
2023-10-06T23:42:54.502Z,17.73
2023-10-06T23:45:32.558Z,23.00
2023-10-06T23:48:11.998Z,22.08
2023-10-06T23:50:55.213Z,23.45
2023-10-06T23:53:29.900Z,28.77
2023-10-06T23:56:02.604Z,27.23
2023-10-06T23:58:35.198Z,25.85
